createdAt,value
2018-08-27T00:02:10.864Z,1.07
2018-08-27T00:06:54.634Z,1.00
2018-08-27T00:11:38.722Z,1.00
2018-08-27T00:16:23.334Z,1.10
2018-08-27T00:21:08.560Z,0.80
2018-08-27T00:25:52.658Z,1.07
2018-08-27T00:30:36.731Z,0.90
2018-08-27T00:35:20.792Z,0.80
2018-08-27T00:40:04.818Z,0.93
2018-08-27T00:44:48.794Z,1.03
2018-08-27T00:49:32.640Z,1.07
2018-08-27T00:54:16.504Z,0.87
2018-08-27T00:59:00.522Z,0.80
2018-08-27T01:03:44.352Z,1.47
2018-08-27T01:08:28.535Z,1.00
2018-08-27T01:13:12.562Z,1.00
2018-08-27T01:17:56.526Z,1.00
2018-08-27T01:22:40.590Z,1.20
2018-08-27T01:27:24.376Z,1.10
2018-08-27T01:32:13.482Z,1.20
2018-08-27T01:36:57.408Z,1.27
2018-08-27T01:41:41.411Z,1.40
2018-08-27T01:46:25.275Z,1.30
2018-08-27T01:51:09.120Z,1.30
2018-08-27T01:55:53.130Z,1.40
2018-08-27T02:00:36.759Z,1.33
2018-08-27T02:05:20.716Z,1.37
2018-08-27T02:10:04.693Z,1.43
2018-08-27T02:14:48.361Z,1.40
2018-08-27T02:19:32.101Z,1.23
2018-08-27T02:24:15.874Z,1.53
2018-08-27T02:28:59.521Z,1.40
2018-08-27T02:33:43.193Z,1.40
2018-08-27T02:38:26.961Z,1.43
2018-08-27T02:43:10.629Z,1.30
2018-08-27T02:47:54.377Z,1.30
2018-08-27T02:52:38.151Z,1.40
2018-08-27T02:57:22.579Z,1.10
2018-08-27T03:02:06.233Z,1.30
2018-08-27T03:06:50.096Z,1.17
2018-08-27T03:11:33.824Z,1.47
2018-08-27T03:16:17.717Z,1.30
2018-08-27T03:21:01.388Z,1.63
2018-08-27T03:25:45.165Z,1.40
2018-08-27T03:30:28.914Z,1.60
2018-08-27T03:35:12.654Z,1.50
2018-08-27T03:39:56.852Z,1.43
2018-08-27T03:44:40.545Z,1.43
2018-08-27T03:49:24.461Z,1.30
2018-08-27T03:54:08.276Z,1.50
2018-08-27T03:58:51.978Z,1.23
2018-08-27T04:03:35.694Z,1.30
2018-08-27T04:08:20.428Z,1.50
2018-08-27T04:13:04.044Z,1.40
2018-08-27T04:17:47.670Z,1.27
2018-08-27T04:22:31.384Z,1.23
2018-08-27T04:27:15.094Z,1.50
2018-08-27T04:31:58.715Z,1.50
2018-08-27T04:36:42.444Z,1.00
2018-08-27T04:41:26.110Z,1.37
2018-08-27T04:46:09.800Z,1.23
2018-08-27T04:50:53.555Z,1.17
2018-08-27T04:55:37.241Z,1.17
2018-08-27T05:00:26.304Z,1.20
2018-08-27T05:05:10.188Z,1.03
2018-08-27T05:09:54.026Z,0.90
2018-08-27T05:14:37.785Z,1.23
2018-08-27T05:19:21.531Z,0.90
2018-08-27T05:24:05.413Z,1.23
2018-08-27T05:28:49.140Z,1.20
2018-08-27T05:33:32.979Z,0.90
2018-08-27T05:38:16.799Z,0.97
2018-08-27T05:43:00.499Z,0.80
2018-08-27T05:47:44.243Z,1.03
2018-08-27T05:52:27.891Z,0.93
2018-08-27T05:57:11.489Z,1.00
2018-08-27T06:01:55.542Z,0.90
2018-08-27T06:06:39.198Z,1.13
2018-08-27T06:11:23.015Z,1.27
2018-08-27T06:16:06.757Z,1.30
2018-08-27T06:20:50.549Z,1.20
2018-08-27T06:25:34.456Z,1.00
2018-08-27T06:30:18.239Z,1.10
2018-08-27T06:35:02.468Z,1.07
2018-08-27T06:39:46.418Z,1.10
2018-08-27T06:44:30.167Z,0.80
2018-08-27T06:49:13.977Z,0.97
2018-08-27T06:53:57.858Z,0.80
2018-08-27T06:58:41.890Z,1.07
2018-08-27T07:03:25.727Z,1.03
2018-08-27T07:08:09.466Z,0.80
2018-08-27T07:12:53.163Z,0.80
2018-08-27T07:17:37.155Z,0.63
2018-08-27T07:22:21.058Z,1.10
2018-08-27T07:27:04.864Z,0.90
2018-08-27T07:31:48.674Z,0.80
2018-08-27T07:36:32.554Z,0.83
2018-08-27T07:41:16.363Z,0.97
2018-08-27T07:46:00.119Z,0.83
2018-08-27T07:50:43.844Z,1.00
2018-08-27T07:55:27.752Z,0.80
2018-08-27T08:00:15.827Z,0.70
2018-08-27T08:04:59.541Z,0.80
2018-08-27T08:09:43.203Z,1.07
2018-08-27T08:14:26.871Z,0.80
2018-08-27T08:19:10.570Z,0.90
2018-08-27T08:23:54.335Z,1.00
2018-08-27T08:28:38.104Z,0.60
2018-08-27T08:33:22.027Z,0.77
2018-08-27T08:38:05.799Z,1.17
2018-08-27T08:42:49.933Z,1.00
2018-08-27T08:47:33.734Z,1.07
2018-08-27T08:52:17.541Z,0.80
2018-08-27T08:57:01.320Z,0.90
2018-08-27T09:01:45.276Z,0.80
2018-08-27T09:06:29.011Z,0.83
2018-08-27T09:11:12.869Z,0.80
2018-08-27T09:15:56.497Z,1.10
2018-08-27T09:20:40.296Z,1.43
2018-08-27T09:25:24.039Z,0.97
2018-08-27T09:30:09.805Z,0.80
2018-08-27T09:34:53.605Z,0.90
2018-08-27T09:39:37.255Z,0.97
2018-08-27T09:44:20.945Z,0.80
2018-08-27T09:49:04.581Z,0.80
2018-08-27T09:53:48.227Z,0.80
2018-08-27T09:58:32.104Z,1.00
2018-08-27T10:03:15.758Z,1.00
2018-08-27T10:07:59.536Z,1.03
2018-08-27T10:12:43.291Z,0.90
2018-08-27T10:17:27.366Z,1.23
2018-08-27T10:22:11.292Z,1.00
2018-08-27T10:26:55.141Z,1.20
2018-08-27T10:31:39.088Z,0.90
2018-08-27T10:36:23.109Z,1.30
2018-08-27T10:41:07.213Z,1.50
2018-08-27T10:45:51.600Z,1.00
2018-08-27T10:50:35.419Z,1.13
2018-08-27T10:55:19.040Z,1.10
2018-08-27T11:00:02.798Z,1.00
2018-08-27T11:04:46.549Z,0.90
2018-08-27T11:09:30.258Z,1.33
2018-08-27T11:14:14.043Z,1.13
2018-08-27T11:18:57.800Z,1.10
2018-08-27T11:23:41.514Z,1.03
2018-08-27T11:28:25.354Z,1.00
2018-08-27T11:33:09.104Z,1.23
2018-08-27T11:37:52.872Z,0.97
2018-08-27T11:42:37.698Z,1.07
2018-08-27T11:47:21.534Z,1.00
2018-08-27T11:52:05.639Z,1.10
2018-08-27T11:56:49.317Z,1.20
2018-08-27T12:01:33.176Z,1.10
2018-08-27T12:06:17.467Z,1.10
2018-08-27T12:11:01.140Z,1.13
2018-08-27T12:15:44.909Z,1.20
2018-08-27T12:20:28.639Z,1.40
2018-08-27T12:25:12.305Z,1.10
2018-08-27T12:29:56.281Z,1.00
2018-08-27T12:34:40.108Z,1.10
2018-08-27T12:39:24.614Z,1.10
2018-08-27T12:44:08.513Z,1.10
2018-08-27T12:48:52.439Z,1.20
2018-08-27T12:53:36.278Z,1.10
2018-08-27T12:58:21.416Z,1.30
2018-08-27T13:03:05.048Z,1.07
2018-08-27T13:07:48.877Z,1.23
2018-08-27T13:12:32.415Z,1.40
2018-08-27T13:17:16.249Z,1.90
2018-08-27T13:22:00.446Z,1.10
2018-08-27T13:26:44.298Z,1.23
2018-08-27T13:31:28.149Z,1.03
2018-08-27T13:36:12.731Z,1.77
2018-08-27T13:40:56.627Z,1.13
2018-08-27T13:45:40.487Z,1.17
2018-08-27T13:50:24.366Z,1.13
2018-08-27T13:55:08.349Z,1.40
2018-08-27T13:59:52.119Z,1.00
2018-08-27T14:04:36.055Z,1.23
2018-08-27T14:09:19.813Z,1.30
2018-08-27T14:14:04.010Z,1.50
2018-08-27T14:18:47.707Z,0.97
2018-08-27T14:23:31.670Z,1.07
2018-08-27T14:28:15.331Z,1.00
2018-08-27T14:32:59.414Z,0.93
2018-08-27T14:37:43.228Z,1.43
2018-08-27T14:42:27.139Z,1.23
2018-08-27T14:47:10.876Z,1.20
2018-08-27T14:51:54.682Z,1.20
2018-08-27T14:56:38.445Z,1.47
2018-08-27T15:01:22.539Z,1.17
2018-08-27T15:06:06.637Z,0.90
2018-08-27T15:10:50.547Z,1.40
2018-08-27T15:15:34.280Z,0.90
2018-08-27T15:20:18.155Z,1.07
2018-08-27T15:25:01.854Z,0.80
2018-08-27T15:29:45.675Z,0.90
2018-08-27T15:34:29.420Z,0.97
2018-08-27T15:39:13.176Z,0.70
2018-08-27T15:43:56.919Z,0.70
2018-08-27T15:48:40.813Z,0.50
2018-08-27T15:53:25.372Z,0.80
2018-08-27T15:58:09.209Z,0.80
2018-08-27T16:02:53.068Z,0.80
2018-08-27T16:07:36.965Z,0.90
2018-08-27T16:12:21.597Z,1.10
2018-08-27T16:17:05.445Z,0.90
2018-08-27T16:21:49.215Z,1.30
2018-08-27T16:26:33.018Z,0.90
2018-08-27T16:31:16.695Z,1.33
2018-08-27T16:36:00.577Z,1.13
2018-08-27T16:40:44.327Z,1.20
2018-08-27T16:45:28.234Z,1.33
2018-08-27T16:50:12.097Z,1.10
2018-08-27T16:54:55.975Z,0.80
2018-08-27T16:59:39.741Z,1.00
2018-08-27T17:04:23.771Z,1.10
2018-08-27T17:09:07.721Z,1.20
2018-08-27T17:13:51.384Z,1.10
2018-08-27T17:18:35.138Z,1.23
2018-08-27T17:23:19.448Z,1.23
2018-08-27T17:28:03.471Z,0.90
2018-08-27T17:32:47.274Z,1.17
2018-08-27T17:37:31.034Z,1.10
2018-08-27T17:42:14.651Z,1.13
2018-08-27T17:46:58.408Z,1.20
2018-08-27T17:51:42.201Z,1.00
2018-08-27T17:56:26.307Z,1.00
2018-08-27T18:01:10.296Z,1.20
2018-08-27T18:05:54.496Z,1.30
2018-08-27T18:10:38.501Z,1.30
2018-08-27T18:15:22.668Z,1.30
2018-08-27T18:20:06.906Z,1.00
2018-08-27T18:24:51.484Z,1.10
2018-08-27T18:29:35.696Z,0.80
2018-08-27T18:34:19.822Z,1.10
2018-08-27T18:39:04.983Z,1.00
2018-08-27T18:43:49.322Z,1.10
2018-08-27T18:48:33.438Z,1.20
2018-08-27T18:53:18.198Z,1.07
2018-08-27T18:58:02.781Z,1.23
2018-08-27T19:02:47.219Z,1.50
2018-08-27T19:07:31.489Z,1.00
2018-08-27T19:12:16.076Z,1.13
2018-08-27T19:17:00.333Z,1.20
2018-08-27T19:21:44.470Z,1.07
2018-08-27T19:26:28.958Z,1.10
2018-08-27T19:31:13.060Z,1.20
2018-08-27T19:35:57.198Z,1.27
2018-08-27T19:40:43.625Z,1.23
2018-08-27T19:45:28.026Z,1.17
2018-08-27T19:50:12.579Z,1.40
2018-08-27T19:54:56.863Z,1.43
2018-08-27T19:59:40.827Z,1.53
2018-08-27T20:04:25.021Z,1.30
2018-08-27T20:09:09.297Z,1.40
2018-08-27T20:13:53.412Z,1.50
2018-08-27T20:18:37.495Z,1.40
2018-08-27T20:23:21.569Z,1.50
2018-08-27T20:28:05.935Z,1.30
2018-08-27T20:32:49.937Z,1.40
2018-08-27T20:37:33.966Z,1.47
2018-08-27T20:42:18.200Z,1.50
2018-08-27T20:47:03.415Z,1.53
2018-08-27T20:51:47.608Z,1.50
2018-08-27T20:56:31.565Z,1.63
2018-08-27T21:01:15.514Z,1.80
2018-08-27T21:05:59.348Z,1.60
2018-08-27T21:10:43.400Z,1.60
2018-08-27T21:15:27.673Z,1.60
2018-08-27T21:20:14.302Z,1.40
2018-08-27T21:24:58.987Z,1.90
2018-08-27T21:29:42.961Z,1.70
2018-08-27T21:34:27.111Z,1.80
2018-08-27T21:39:11.263Z,1.63
2018-08-27T21:43:55.432Z,1.90
2018-08-27T21:48:39.379Z,1.70
2018-08-27T21:53:23.453Z,1.80
2018-08-27T21:58:07.642Z,1.97
2018-08-27T22:02:56.795Z,1.90
2018-08-27T22:12:55.466Z,1.53
2018-08-27T22:17:39.242Z,1.90
2018-08-27T22:22:23.131Z,1.90
2018-08-27T22:27:06.829Z,1.90
2018-08-27T22:31:50.495Z,1.77
2018-08-27T22:36:34.147Z,1.77
2018-08-27T22:41:19.103Z,2.23
2018-08-27T22:46:03.260Z,2.40
2018-08-27T22:50:46.905Z,2.00
2018-08-27T22:55:30.765Z,2.37
2018-08-27T23:00:14.683Z,2.17
2018-08-27T23:04:59.707Z,2.10
2018-08-27T23:09:43.471Z,2.20
2018-08-27T23:14:27.406Z,2.33
2018-08-27T23:19:11.323Z,2.00
2018-08-27T23:23:55.370Z,2.10
2018-08-27T23:28:39.083Z,2.40
2018-08-27T23:33:22.896Z,2.20
2018-08-27T23:38:06.846Z,2.23
2018-08-27T23:42:51.085Z,2.40
2018-08-27T23:47:36.427Z,2.33
2018-08-27T23:52:20.272Z,2.47
2018-08-27T23:57:04.191Z,2.00
